createdAt,value
2022-10-24T00:00:49.860Z,100146.98
2022-10-24T00:03:20.323Z,100144.77
2022-10-24T00:05:51.151Z,100140.66
2022-10-24T00:08:21.590Z,100145.64
2022-10-24T00:10:52.086Z,100141.13
2022-10-24T00:13:22.489Z,100135.36
2022-10-24T00:15:53.342Z,100129.23
2022-10-24T00:18:24.407Z,100126.84
2022-10-24T00:20:54.774Z,100131.55
2022-10-24T00:23:25.882Z,100135.30
2022-10-24T00:25:56.549Z,100140.19
2022-10-24T00:28:27.364Z,100151.05
2022-10-24T00:30:58.312Z,100150.99
2022-10-24T00:33:29.957Z,100153.08
2022-10-24T00:36:00.404Z,100148.83
2022-10-24T00:38:30.939Z,100144.02
2022-10-24T00:41:02.042Z,100141.08
2022-10-24T00:43:32.415Z,100142.47
2022-10-24T00:46:03.514Z,100137.73
2022-10-24T00:48:39.276Z,100132.29
2022-10-24T00:51:14.662Z,100140.80
2022-10-24T00:53:48.741Z,100144.20
2022-10-24T00:56:23.137Z,100144.36
2022-10-24T00:58:55.115Z,100136.20
2022-10-24T01:01:27.295Z,100130.38
2022-10-24T01:03:58.297Z,100132.00
2022-10-24T01:06:46.258Z,100128.11
2022-10-24T01:09:32.204Z,100131.13
2022-10-24T01:12:12.652Z,100137.30
2022-10-24T01:14:54.160Z,100135.69
2022-10-24T01:17:32.712Z,100135.85
2022-10-24T01:20:37.938Z,100133.91
2022-10-24T01:23:24.478Z,100129.96
2022-10-24T01:26:07.999Z,100122.20
2022-10-24T01:28:46.311Z,100125.35
2022-10-24T01:31:25.249Z,100121.50
2022-10-24T01:34:03.971Z,100122.19
2022-10-24T01:36:41.038Z,100123.30
2022-10-24T01:39:16.339Z,100122.80
2022-10-24T01:41:48.432Z,100119.48
2022-10-24T01:44:24.825Z,100120.73
2022-10-24T01:46:59.549Z,100120.21
2022-10-24T01:49:34.569Z,100124.04
2022-10-24T01:52:09.382Z,100123.88
2022-10-24T01:54:42.979Z,100121.64
2022-10-24T01:57:14.661Z,100119.36
2022-10-24T01:59:48.034Z,100121.38
2022-10-24T02:02:25.008Z,100120.84
2022-10-24T02:04:59.412Z,100114.39
2022-10-24T02:07:34.715Z,100109.14
2022-10-24T02:10:10.505Z,100109.88
2022-10-24T02:12:44.949Z,100104.19
2022-10-24T02:15:21.538Z,100100.48
2022-10-24T02:17:52.689Z,100104.83
2022-10-24T02:20:29.332Z,100104.05
2022-10-24T02:23:07.158Z,100103.63
2022-10-24T02:25:38.321Z,100103.67
2022-10-24T02:28:14.271Z,100101.73
2022-10-24T02:30:48.795Z,100096.89
2022-10-24T02:33:20.854Z,100092.98
2022-10-24T02:35:52.982Z,100088.64
2022-10-24T02:38:28.224Z,100089.98
2022-10-24T02:41:03.166Z,100081.43
2022-10-24T02:43:35.449Z,100080.14
2022-10-24T02:46:07.942Z,100078.30
2022-10-24T02:48:42.442Z,100083.04
2022-10-24T02:51:14.210Z,100074.94
2022-10-24T02:53:44.915Z,100071.08
2022-10-24T02:56:15.555Z,100052.16
2022-10-24T02:58:46.067Z,100050.83
2022-10-24T03:01:17.308Z,100051.52
2022-10-24T03:03:48.060Z,100062.55
2022-10-24T03:06:18.532Z,100076.02
2022-10-24T03:08:48.897Z,100086.56
2022-10-24T03:11:19.478Z,100083.94
2022-10-24T03:13:49.796Z,100087.57
2022-10-24T03:16:20.166Z,100082.09
2022-10-24T03:18:50.805Z,100068.29
2022-10-24T03:21:21.216Z,100061.13
2022-10-24T03:23:51.736Z,100058.89
2022-10-24T03:26:22.425Z,100064.92
2022-10-24T03:28:52.758Z,100056.91
2022-10-24T03:31:23.117Z,100051.46
2022-10-24T03:33:53.535Z,100048.07
2022-10-24T03:36:23.939Z,100052.02
2022-10-24T03:38:54.310Z,100053.14
2022-10-24T03:41:24.715Z,100062.08
2022-10-24T03:43:55.396Z,100058.52
2022-10-24T03:46:25.748Z,100064.23
2022-10-24T03:48:56.180Z,100062.38
2022-10-24T03:51:26.728Z,100067.35
2022-10-24T03:53:57.106Z,100064.95
2022-10-24T03:56:27.476Z,100061.87
2022-10-24T03:58:57.891Z,100063.45
2022-10-24T04:01:28.992Z,100062.74
2022-10-24T04:03:59.533Z,100059.21
2022-10-24T04:06:32.633Z,100055.08
2022-10-24T04:09:06.849Z,100056.92
2022-10-24T04:11:37.593Z,100060.52
2022-10-24T04:14:09.527Z,100065.61
2022-10-24T04:16:40.013Z,100059.70
2022-10-24T04:19:11.262Z,100067.38
2022-10-24T04:21:41.887Z,100062.02
2022-10-24T04:24:13.080Z,100065.61
2022-10-24T04:26:43.467Z,100060.70
2022-10-24T04:29:14.361Z,100057.42
2022-10-24T04:31:44.892Z,100056.52
2022-10-24T04:34:15.274Z,100055.47
2022-10-24T04:36:45.941Z,100051.08
2022-10-24T04:39:16.370Z,100049.25
2022-10-24T04:41:47.120Z,100052.60
2022-10-24T04:44:17.831Z,100051.19
2022-10-24T04:46:50.669Z,100049.27
2022-10-24T04:49:22.382Z,100049.77
2022-10-24T04:51:53.333Z,100046.57
2022-10-24T04:54:23.829Z,100044.27
2022-10-24T04:56:54.294Z,100041.12
2022-10-24T04:59:24.665Z,100039.73
2022-10-24T05:01:55.515Z,100048.24
2022-10-24T05:04:26.034Z,100038.77
2022-10-24T05:06:56.738Z,100047.17
2022-10-24T05:09:27.231Z,100054.77
2022-10-24T05:11:59.197Z,100055.70
2022-10-24T05:14:29.564Z,100053.79
2022-10-24T05:17:00.603Z,100063.58
2022-10-24T05:19:31.400Z,100058.83
2022-10-24T05:22:04.012Z,100057.64
2022-10-24T05:24:36.718Z,100053.71
2022-10-24T05:27:07.227Z,100049.30
2022-10-24T05:29:38.242Z,100039.41
2022-10-24T05:32:09.065Z,100041.48
2022-10-24T05:34:39.422Z,100043.09
2022-10-24T05:37:09.910Z,100040.71
2022-10-24T05:39:40.357Z,100039.46
2022-10-24T05:42:11.901Z,100039.95
2022-10-24T05:44:42.734Z,100039.08
2022-10-24T05:47:13.811Z,100029.98
2022-10-24T05:49:44.580Z,100037.16
2022-10-24T05:52:15.666Z,100030.85
2022-10-24T05:55:02.407Z,100030.29
2022-10-24T05:57:37.637Z,100029.09
2022-10-24T06:00:13.109Z,100028.44
2022-10-24T06:02:44.383Z,100026.13
2022-10-24T06:05:15.773Z,100026.32
2022-10-24T06:07:46.840Z,100029.67
2022-10-24T06:10:17.869Z,100030.38
2022-10-24T06:12:48.594Z,100034.94
2022-10-24T06:15:19.387Z,100034.73
2022-10-24T06:17:50.393Z,100035.59
2022-10-24T06:20:21.298Z,100038.28
2022-10-24T06:22:52.529Z,100037.85
2022-10-24T06:25:23.264Z,100042.92
2022-10-24T06:27:53.852Z,100038.08
2022-10-24T06:30:24.796Z,100035.33
2022-10-24T06:32:55.875Z,100041.49
2022-10-24T06:35:26.659Z,100047.65
2022-10-24T06:37:57.855Z,100045.20
2022-10-24T06:40:28.561Z,100048.20
2022-10-24T06:42:59.651Z,100047.88
2022-10-24T06:45:30.110Z,100047.33
2022-10-24T06:48:01.217Z,100044.43
2022-10-24T06:50:31.954Z,100044.69
2022-10-24T06:53:02.421Z,100045.59
2022-10-24T06:55:32.917Z,100053.59
2022-10-24T06:58:04.909Z,100055.89
2022-10-24T07:00:36.309Z,100055.45
2022-10-24T07:03:07.230Z,100051.26
2022-10-24T07:05:39.604Z,100042.90
2022-10-24T07:08:11.073Z,100045.39
2022-10-24T07:10:41.874Z,100057.37
2022-10-24T07:13:12.636Z,100059.91
2022-10-24T07:15:43.364Z,100061.92
2022-10-24T07:18:17.742Z,100060.84
2022-10-24T07:20:48.929Z,100067.27
2022-10-24T07:23:20.057Z,100071.29
2022-10-24T07:25:52.733Z,100072.14
2022-10-24T07:28:23.463Z,100072.90
2022-10-24T07:30:54.413Z,100068.19
2022-10-24T07:33:25.270Z,100068.20
2022-10-24T07:35:56.368Z,100066.90
2022-10-24T07:38:27.016Z,100065.21
2022-10-24T07:40:57.838Z,100064.04
2022-10-24T07:43:28.269Z,100063.38
2022-10-24T07:48:30.497Z,100071.37
2022-10-24T07:51:01.105Z,100071.69
2022-10-24T07:53:32.176Z,100076.89
2022-10-24T07:56:05.648Z,100075.17
2022-10-24T07:58:36.925Z,100073.94
2022-10-24T08:01:09.808Z,100069.41
2022-10-24T08:03:40.688Z,100076.05
2022-10-24T08:06:15.041Z,100072.73
2022-10-24T08:08:45.701Z,100070.38
2022-10-24T08:11:18.025Z,100066.16
2022-10-24T08:13:49.473Z,100059.69
2022-10-24T08:16:22.057Z,100060.21
2022-10-24T08:18:54.894Z,100060.86
2022-10-24T08:21:26.788Z,100062.02
2022-10-24T08:23:57.750Z,100060.09
2022-10-24T08:26:28.504Z,100061.87
2022-10-24T08:28:58.912Z,100061.09
2022-10-24T08:31:29.694Z,100063.05
2022-10-24T08:34:00.486Z,100058.41
2022-10-24T08:36:32.994Z,100058.70
2022-10-24T08:39:04.481Z,100058.80
2022-10-24T08:41:37.897Z,100055.57
2022-10-24T08:44:20.322Z,100053.40
2022-10-24T08:46:56.214Z,100051.55
2022-10-24T08:49:34.936Z,100052.80
2022-10-24T08:52:15.686Z,100058.79
2022-10-24T08:54:47.891Z,100062.35
2022-10-24T08:57:24.534Z,100067.45
2022-10-24T08:59:59.495Z,100063.23
2022-10-24T09:02:34.611Z,100057.34
2022-10-24T09:05:20.054Z,100055.92
2022-10-24T09:07:55.209Z,100052.46
2022-10-24T09:10:34.524Z,100054.16
2022-10-24T09:13:09.067Z,100052.27
2022-10-24T09:15:41.756Z,100054.30
2022-10-24T09:18:18.936Z,100054.55
2022-10-24T09:20:51.249Z,100046.58
2022-10-24T09:23:23.567Z,100047.81
2022-10-24T09:25:57.748Z,100043.98
2022-10-24T09:28:28.314Z,100047.64
2022-10-24T09:30:58.930Z,100046.69
2022-10-24T09:33:32.278Z,100045.40
2022-10-24T09:36:05.075Z,100045.50
2022-10-24T09:38:37.688Z,100044.92
2022-10-24T09:41:16.760Z,100046.50
2022-10-24T09:43:53.434Z,100043.66
2022-10-24T09:46:26.064Z,100046.15
2022-10-24T09:48:58.866Z,100044.38
2022-10-24T09:51:33.749Z,100044.17
2022-10-24T09:54:08.982Z,100047.45
2022-10-24T09:56:41.697Z,100047.05
2022-10-24T09:59:31.440Z,100049.38
2022-10-24T10:02:24.703Z,100048.56
2022-10-24T10:05:17.213Z,100054.26
2022-10-24T10:07:50.540Z,100058.73
2022-10-24T10:10:31.477Z,100051.98
2022-10-24T10:13:23.488Z,100050.55
2022-10-24T10:15:57.243Z,100051.25
2022-10-24T10:18:35.404Z,100055.83
2022-10-24T10:21:13.412Z,100058.89
2022-10-24T10:23:46.393Z,100063.93
2022-10-24T10:26:29.017Z,100064.73
2022-10-24T10:29:03.241Z,100064.23
2022-10-24T10:31:51.574Z,100064.90
2022-10-24T10:34:27.467Z,100066.52
2022-10-24T10:37:14.561Z,100070.49
2022-10-24T10:40:02.703Z,100066.63
2022-10-24T10:42:42.569Z,100074.03
2022-10-24T10:45:27.406Z,100070.73
2022-10-24T10:48:09.102Z,100076.16
2022-10-24T10:50:44.245Z,100073.70
2022-10-24T10:53:30.853Z,100072.77
2022-10-24T10:56:11.715Z,100070.13
2022-10-24T10:58:49.858Z,100075.96
2022-10-24T11:01:32.698Z,100079.53
2022-10-24T11:04:14.452Z,100081.05
2022-10-24T11:06:53.129Z,100085.34
2022-10-24T11:09:38.230Z,100088.77
2022-10-24T11:12:14.813Z,100097.60
2022-10-24T11:14:50.329Z,100104.24
2022-10-24T11:17:24.866Z,100103.37
2022-10-24T11:20:06.511Z,100111.80
2022-10-24T11:22:44.182Z,100105.64
2022-10-24T11:25:25.928Z,100108.36
2022-10-24T11:28:03.879Z,100102.88
2022-10-24T11:30:48.377Z,100103.66
2022-10-24T11:33:23.764Z,100098.69
2022-10-24T11:36:08.388Z,100102.40
2022-10-24T11:38:47.345Z,100100.14
2022-10-24T11:41:43.425Z,100101.52
2022-10-24T11:44:34.603Z,100099.70
2022-10-24T11:47:17.924Z,100100.98
2022-10-24T11:49:55.806Z,100095.38
2022-10-24T11:52:30.164Z,100090.56
2022-10-24T11:55:07.610Z,100093.56
2022-10-24T11:57:39.910Z,100090.79
2022-10-24T12:00:22.231Z,100097.89
2022-10-24T12:03:20.386Z,100099.54
2022-10-24T12:06:13.336Z,100104.08
2022-10-24T12:09:18.701Z,100099.27
2022-10-24T12:12:05.786Z,100104.02
2022-10-24T12:15:00.191Z,100103.14
2022-10-24T12:17:55.296Z,100107.67
2022-10-24T12:20:27.834Z,100106.40
2022-10-24T12:23:00.072Z,100097.88
2022-10-24T12:25:35.737Z,100098.65
2022-10-24T12:28:09.554Z,100098.77
2022-10-24T12:30:40.638Z,100091.57
2022-10-24T12:33:24.795Z,100099.42
2022-10-24T12:35:57.489Z,100096.89
2022-10-24T12:39:08.377Z,100098.39
2022-10-24T12:41:43.640Z,100103.98
2022-10-24T12:44:42.294Z,100102.70
2022-10-24T12:47:45.623Z,100098.94
2022-10-24T12:51:02.869Z,100107.80
2022-10-24T12:53:37.143Z,100112.79
2022-10-24T12:56:22.617Z,100113.34
2022-10-24T12:59:05.184Z,100111.40
2022-10-24T13:01:38.110Z,100104.15
2022-10-24T13:04:45.333Z,100100.88
2022-10-24T13:07:53.967Z,100100.38
2022-10-24T13:10:39.609Z,100095.95
2022-10-24T13:13:27.957Z,100097.02
2022-10-24T13:16:04.172Z,100096.52
2022-10-24T13:18:49.738Z,100096.52
2022-10-24T13:21:28.190Z,100095.46
2022-10-24T13:24:13.962Z,100098.13
2022-10-24T13:26:46.921Z,100101.45
2022-10-24T13:29:39.213Z,100096.84
2022-10-24T13:32:36.149Z,100105.21
2022-10-24T13:35:15.902Z,100107.31
2022-10-24T13:37:53.560Z,100114.83
2022-10-24T13:40:32.410Z,100116.70
2022-10-24T13:43:07.899Z,100118.70
2022-10-24T13:45:47.128Z,100124.67
2022-10-24T13:48:21.682Z,100124.00
2022-10-24T13:51:04.446Z,100126.27
2022-10-24T13:53:46.254Z,100125.99
2022-10-24T13:56:18.233Z,100127.93
2022-10-24T13:58:49.064Z,100127.43
2022-10-24T14:01:25.127Z,100124.00
2022-10-24T14:03:57.266Z,100121.08
2022-10-24T14:06:31.053Z,100116.82
2022-10-24T14:09:09.232Z,100118.92
2022-10-24T14:11:43.738Z,100124.23
2022-10-24T14:14:28.477Z,100120.58
2022-10-24T14:17:23.247Z,100117.98
2022-10-24T14:19:56.671Z,100119.34
2022-10-24T14:22:29.950Z,100119.12
2022-10-24T14:25:00.810Z,100117.02
2022-10-24T14:27:31.598Z,100125.20
2022-10-24T14:30:05.783Z,100126.31
2022-10-24T14:32:36.312Z,100128.95
2022-10-24T14:35:08.052Z,100130.13
2022-10-24T14:37:41.359Z,100127.63
2022-10-24T14:40:19.133Z,100125.42
2022-10-24T14:42:51.333Z,100121.71
2022-10-24T14:45:28.161Z,100123.42
2022-10-24T14:48:00.592Z,100123.91
2022-10-24T14:50:41.496Z,100127.23
2022-10-24T14:53:25.676Z,100128.27
2022-10-24T14:55:58.505Z,100124.95
2022-10-24T14:58:31.732Z,100127.95
2022-10-24T15:01:03.347Z,100127.58
2022-10-24T15:03:33.754Z,100127.62
2022-10-24T15:06:12.486Z,100130.05
2022-10-24T15:08:48.393Z,100137.55
2022-10-24T15:11:22.325Z,100138.71
2022-10-24T15:14:06.374Z,100138.74
2022-10-24T15:16:42.080Z,100140.63
2022-10-24T15:19:19.378Z,100137.14
2022-10-24T15:21:50.843Z,100138.89
2022-10-24T15:24:26.063Z,100137.98
2022-10-24T15:27:12.357Z,100143.02
2022-10-24T15:29:43.596Z,100144.16
2022-10-24T15:32:14.050Z,100149.02
2022-10-24T15:34:45.537Z,100150.39
2022-10-24T15:37:24.098Z,100152.64
2022-10-24T15:39:55.874Z,100156.66
2022-10-24T15:42:26.425Z,100158.58
2022-10-24T15:44:57.232Z,100160.27
2022-10-24T15:47:28.101Z,100162.19
2022-10-24T15:49:58.561Z,100163.55
2022-10-24T15:52:28.981Z,100160.04
2022-10-24T15:55:00.472Z,100161.23
2022-10-24T15:57:31.246Z,100162.65
2022-10-24T16:00:01.706Z,100166.39
2022-10-24T16:02:32.471Z,100171.39
2022-10-24T16:05:03.216Z,100177.17
2022-10-24T16:07:35.905Z,100176.20
2022-10-24T16:10:07.492Z,100179.38
2022-10-24T16:12:38.001Z,100181.16
2022-10-24T16:15:18.280Z,100185.84
2022-10-24T16:17:49.058Z,100196.81
2022-10-24T16:20:20.595Z,100195.52
2022-10-24T16:22:51.414Z,100195.86
2022-10-24T16:25:23.945Z,100194.39
2022-10-24T16:27:54.639Z,100194.89
2022-10-24T16:30:27.963Z,100197.02
2022-10-24T16:32:59.220Z,100200.23
2022-10-24T16:35:32.087Z,100198.81
2022-10-24T16:38:03.434Z,100202.25
2022-10-24T16:40:38.612Z,100204.26
2022-10-24T16:43:10.632Z,100203.39
2022-10-24T16:45:41.511Z,100210.55
2022-10-24T16:48:13.304Z,100209.64
2022-10-24T16:50:46.471Z,100206.30
2022-10-24T16:53:18.429Z,100206.48
2022-10-24T16:55:52.185Z,100199.69
2022-10-24T16:58:23.535Z,100190.11
2022-10-24T17:01:02.056Z,100197.39
2022-10-24T17:03:32.975Z,100191.70
2022-10-24T17:06:04.041Z,100191.98
2022-10-24T17:08:35.099Z,100197.58
2022-10-24T17:11:20.232Z,100194.02
2022-10-24T17:13:56.959Z,100196.11
2022-10-24T17:16:27.649Z,100194.10
2022-10-24T17:19:14.768Z,100190.91
2022-10-24T17:21:47.881Z,100192.74
2022-10-24T17:24:21.505Z,100194.29
2022-10-24T17:26:53.165Z,100197.10
2022-10-24T17:29:29.101Z,100204.00
2022-10-24T17:32:00.842Z,100212.11
2022-10-24T17:34:32.053Z,100214.55
2022-10-24T17:37:07.238Z,100218.35
2022-10-24T17:39:49.097Z,100224.20
2022-10-24T17:42:21.196Z,100230.41
2022-10-24T17:44:52.596Z,100230.33
2022-10-24T17:47:23.423Z,100230.67
2022-10-24T17:49:54.236Z,100229.08
2022-10-24T17:52:25.783Z,100231.15
2022-10-24T17:54:57.018Z,100233.43
2022-10-24T17:57:27.931Z,100237.00
2022-10-24T17:59:58.980Z,100239.33
2022-10-24T18:02:30.313Z,100241.66
2022-10-24T18:05:01.019Z,100245.45
2022-10-24T18:07:32.032Z,100244.43
2022-10-24T18:10:04.092Z,100244.87
2022-10-24T18:12:38.206Z,100244.96
2022-10-24T18:15:11.717Z,100248.00
2022-10-24T18:17:43.462Z,100244.62
2022-10-24T18:20:15.658Z,100252.99
2022-10-24T18:22:46.795Z,100253.27
2022-10-24T18:25:21.977Z,100256.17
2022-10-24T18:27:54.069Z,100256.41
2022-10-24T18:30:24.912Z,100259.98
2022-10-24T18:32:56.163Z,100265.95
2022-10-24T18:35:28.792Z,100265.86
2022-10-24T18:37:59.567Z,100270.19
2022-10-24T18:40:33.465Z,100276.41
2022-10-24T18:43:07.513Z,100274.15
2022-10-24T18:45:39.553Z,100277.43
2022-10-24T18:48:11.799Z,100283.64
2022-10-24T18:50:43.271Z,100283.83
2022-10-24T18:53:22.921Z,100286.80
2022-10-24T18:55:54.621Z,100294.77
2022-10-24T18:58:25.929Z,100290.64
2022-10-24T19:00:59.874Z,100292.75
2022-10-24T19:03:37.029Z,100287.73
2022-10-24T19:06:18.667Z,100287.54
2022-10-24T19:08:49.656Z,100279.49
2022-10-24T19:11:21.114Z,100273.41
2022-10-24T19:13:52.030Z,100267.98
2022-10-24T19:16:28.725Z,100264.98
2022-10-24T19:19:03.636Z,100258.85
2022-10-24T19:21:34.085Z,100263.48
2022-10-24T19:24:04.653Z,100264.48
2022-10-24T19:26:35.134Z,100265.58
2022-10-24T19:29:06.005Z,100268.04
2022-10-24T19:31:36.985Z,100274.92
2022-10-24T19:34:07.404Z,100277.52
2022-10-24T19:36:39.164Z,100279.86
2022-10-24T19:39:10.437Z,100281.27
2022-10-24T19:41:42.339Z,100282.11
2022-10-24T19:44:13.151Z,100285.16
2022-10-24T19:46:44.057Z,100282.69
2022-10-24T19:49:15.135Z,100285.45
2022-10-24T19:51:45.610Z,100287.77
2022-10-24T19:54:16.482Z,100286.56
2022-10-24T19:56:49.321Z,100286.39
2022-10-24T19:59:20.097Z,100284.96
2022-10-24T20:01:50.617Z,100282.67
2022-10-24T20:04:22.189Z,100282.31
2022-10-24T20:06:52.690Z,100282.89
2022-10-24T20:09:23.369Z,100282.74
2022-10-24T20:11:53.826Z,100285.93
2022-10-24T20:17:33.877Z,100288.73
2022-10-24T20:20:05.047Z,100294.42
2022-10-24T20:22:42.351Z,100296.35
2022-10-24T20:25:12.766Z,100296.79
2022-10-24T20:27:43.784Z,100297.88
2022-10-24T20:30:15.611Z,100298.98
2022-10-24T20:32:46.221Z,100301.55
2022-10-24T20:35:17.241Z,100307.59
2022-10-24T20:37:48.435Z,100309.15
2022-10-24T20:40:20.175Z,100311.42
2022-10-24T20:42:53.251Z,100313.42
2022-10-24T20:45:23.697Z,100317.70
2022-10-24T20:47:54.758Z,100313.64
2022-10-24T20:50:25.568Z,100317.52
2022-10-24T20:52:56.002Z,100318.62
2022-10-24T20:55:39.303Z,100317.91
2022-10-24T20:58:13.877Z,100326.69
2022-10-24T21:00:44.370Z,100331.62
2022-10-24T21:03:16.220Z,100337.34
2022-10-24T21:05:46.596Z,100340.38
2022-10-24T21:08:17.397Z,100343.67
2022-10-24T21:10:48.152Z,100345.98
2022-10-24T21:13:18.878Z,100351.19
2022-10-24T21:15:49.721Z,100354.20
2022-10-24T21:18:20.854Z,100356.09
2022-10-24T21:20:51.429Z,100358.12
2022-10-24T21:23:22.660Z,100357.79
2022-10-24T21:26:03.615Z,100357.48
2022-10-24T21:28:35.405Z,100359.29
2022-10-24T21:31:10.856Z,100362.39
2022-10-24T21:33:42.429Z,100363.10
2022-10-24T21:36:14.969Z,100358.91
2022-10-24T21:38:49.692Z,100361.56
2022-10-24T21:41:21.879Z,100367.64
2022-10-24T21:43:53.072Z,100365.69
2022-10-24T21:46:25.893Z,100360.37
2022-10-24T21:48:58.022Z,100360.46
2022-10-24T21:51:30.606Z,100368.66
2022-10-24T21:54:03.009Z,100367.47
2022-10-24T21:56:35.241Z,100367.77
2022-10-24T21:59:07.421Z,100368.16
2022-10-24T22:01:38.861Z,100371.63
2022-10-24T22:04:11.466Z,100375.80
2022-10-24T22:06:43.128Z,100371.73
2022-10-24T22:09:15.842Z,100373.38
2022-10-24T22:11:46.698Z,100382.26
2022-10-24T22:14:18.727Z,100376.52
2022-10-24T22:16:50.168Z,100383.92
2022-10-24T22:19:23.401Z,100387.87
2022-10-24T22:21:54.982Z,100387.65
2022-10-24T22:24:26.540Z,100391.06
2022-10-24T22:26:57.184Z,100388.31
2022-10-24T22:29:27.628Z,100389.41
2022-10-24T22:31:59.210Z,100396.23
2022-10-24T22:34:30.782Z,100398.22
2022-10-24T22:37:12.839Z,100398.29
2022-10-24T22:39:44.750Z,100399.96
2022-10-24T22:42:20.086Z,100399.38
2022-10-24T22:44:52.378Z,100400.91
2022-10-24T22:47:46.040Z,100402.48
2022-10-24T22:50:34.289Z,100408.84
2022-10-24T22:53:06.656Z,100410.33
2022-10-24T22:55:45.640Z,100410.07
2022-10-24T22:58:17.114Z,100412.79
2022-10-24T23:00:51.241Z,100421.25
2022-10-24T23:03:46.482Z,100420.25
2022-10-24T23:06:23.870Z,100422.06
2022-10-24T23:08:54.602Z,100420.14
2022-10-24T23:11:26.586Z,100422.98
2022-10-24T23:13:58.394Z,100427.48
2022-10-24T23:16:35.038Z,100431.75
2022-10-24T23:19:07.307Z,100423.48
2022-10-24T23:21:46.596Z,100424.15
2022-10-24T23:24:18.854Z,100423.50
2022-10-24T23:27:06.137Z,100431.55
2022-10-24T23:29:39.321Z,100432.94
2022-10-24T23:32:14.609Z,100435.95
2022-10-24T23:34:46.381Z,100432.84
2022-10-24T23:37:27.641Z,100435.90
2022-10-24T23:39:59.547Z,100440.78
2022-10-24T23:42:31.330Z,100446.85
2022-10-24T23:45:04.244Z,100447.92
2022-10-24T23:47:53.229Z,100444.11
2022-10-24T23:50:31.635Z,100445.52
2022-10-24T23:53:16.819Z,100444.19
2022-10-24T23:55:48.599Z,100445.19
2022-10-24T23:58:19.532Z,100442.01
